Time;durP1;ratioP1;P1;durP2;ratioP2;P2;SDS_P1;SDS_P2;PMS_P1;PMS_P2;Temp;Humidity;BMP_temperature;BMP_pressure;BME280_temperature;BME280_humidity;BME280_pressure;Samples;Min_cycle;Max_cycle;Signal;HPM_P1;HPM_P2
2023/09/26 00:00:23;;;;;;;7.93;3.88;;;;;;;12.94;67.29;101643.75;682124;28;1155;-88
2023/09/26 00:00:44;;;;;;;5.30;3.50;;;;;;;12.95;67.45;101648.13;684252;28;744;-88
2023/09/26 00:01:04;;;;;;;4.60;3.60;;;;;;;12.90;67.44;101641.81;685016;28;1202;-89
2023/09/26 00:01:32;;;;;;;4.32;3.60;;;;;;;12.84;67.32;101632.03;683966;28;1067;-87
2023/09/26 00:01:52;;;;;;;4.20;3.60;;;;;;;12.86;67.49;101634.72;682314;29;1305;-88
2023/09/26 00:02:13;;;;;;;4.97;3.60;;;;;;;12.86;67.54;101643.44;679947;29;1162;-89
2023/09/26 00:02:35;;;;;;;5.90;3.72;;;;;;;12.89;67.33;101646.19;682708;29;1234;-89
2023/09/26 00:02:56;;;;;;;5.80;3.55;;;;;;;12.80;67.47;101632.78;687456;28;1302;-88
2023/09/26 00:03:17;;;;;;;4.47;3.50;;;;;;;12.86;67.65;101635.59;687123;28;1914;-89
2023/09/26 00:03:40;;;;;;;4.00;3.40;;;;;;;12.87;67.56;101642.63;685547;28;1515;-88
2023/09/26 00:04:01;;;;;;;3.92;3.42;;;;;;;12.80;67.34;101638.03;679628;29;1469;-88
2023/09/26 00:04:21;;;;;;;4.13;3.50;;;;;;;12.86;67.38;101653.06;681307;29;1061;-89
2023/09/26 00:04:42;;;;;;;4.85;3.60;;;;;;;12.79;67.68;101630.97;685302;28;1254;-89
2023/09/26 00:05:03;;;;;;;5.27;3.67;;;;;;;12.79;67.39;101630.97;682385;28;1097;-88
2023/09/26 00:05:24;;;;;;;5.53;3.70;;;;;;;12.91;67.38;101650.59;680019;29;1233;-89
2023/09/26 00:05:45;;;;;;;5.47;4.00;;;;;;;12.81;67.44;101638.91;682771;28;1262;-88
2023/09/26 00:06:18;;;;;;;5.23;4.10;;;;;;;12.83;67.39;101638.13;677121;29;1201;-90
2023/09/26 00:06:39;;;;;;;4.97;3.97;;;;;;;12.75;67.50;101631.75;682337;29;1225;-89
2023/09/26 00:07:02;;;;;;;4.63;3.47;;;;;;;12.78;67.46;101634.44;681497;28;1283;-87
2023/09/26 00:07:22;;;;;;;4.03;3.20;;;;;;;12.80;67.44;101645.00;681892;28;1378;-88
2023/09/26 00:07:43;;;;;;;3.70;2.93;;;;;;;12.86;67.24;101650.44;682823;29;1413;-88
2023/09/26 00:08:04;;;;;;;4.30;3.40;;;;;;;12.80;67.44;101642.38;682118;28;1197;-89
2023/09/26 00:08:25;;;;;;;7.95;3.85;;;;;;;12.81;67.44;101641.53;680750;29;1589;-89
2023/09/26 00:08:47;;;;;;;7.80;4.03;;;;;;;12.80;67.34;101637.13;682417;29;1226;-90
2023/09/26 00:09:09;;;;;;;8.90;4.20;;;;;;;12.81;67.40;101641.53;679801;29;1021;-89
2023/09/26 00:09:30;;;;;;;5.20;3.85;;;;;;;12.85;67.61;101657.38;686479;28;1317;-90
2023/09/26 00:09:51;;;;;;;5.35;3.72;;;;;;;12.80;67.63;101642.38;687146;28;1162;-88
2023/09/26 00:10:13;;;;;;;4.25;3.67;;;;;;;12.78;67.37;101644.06;687339;28;1242;-88
2023/09/26 00:10:35;;;;;;;4.60;3.80;;;;;;;12.75;67.60;101640.50;679685;29;843;-89
2023/09/26 00:10:55;;;;;;;5.10;4.00;;;;;;;12.76;67.42;101646.63;682141;29;1300;-87
2023/09/26 00:11:17;;;;;;;5.15;3.80;;;;;;;12.79;67.32;101651.06;682385;29;1311;-88
2023/09/26 00:11:38;;;;;;;4.85;3.67;;;;;;;12.73;67.52;101636.91;682739;29;1099;-89
2023/09/26 00:11:59;;;;;;;4.47;3.55;;;;;;;12.75;67.46;101645.75;682140;29;1132;-89
2023/09/26 00:12:20;;;;;;;4.78;3.90;;;;;;;12.76;67.37;101649.22;685683;28;1187;-88
2023/09/26 00:12:40;;;;;;;4.90;3.60;;;;;;;12.74;67.50;101638.69;688129;28;1266;-88
2023/09/26 00:13:01;;;;;;;5.85;3.90;;;;;;;12.75;67.24;101644.84;684938;28;1169;-89
2023/09/26 00:13:22;;;;;;;5.90;3.92;;;;;;;12.74;67.57;101640.44;675116;29;1227;-88
2023/09/26 00:13:43;;;;;;;6.10;4.30;;;;;;;12.74;67.39;101638.69;677556;29;1466;-89
2023/09/26 00:14:05;;;;;;;5.53;4.20;;;;;;;12.71;67.39;101638.59;679823;29;1100;-89
2023/09/26 00:14:27;;;;;;;5.60;4.25;;;;;;;12.75;67.61;101645.75;679962;29;952;-89
2023/09/26 00:14:48;;;;;;;4.70;4.15;;;;;;;12.73;67.37;101636.06;685269;28;1209;-88
2023/09/26 00:15:11;;;;;;;4.60;3.80;;;;;;;12.75;67.31;101644.84;684378;28;1201;-88
2023/09/26 00:15:31;;;;;;;4.50;3.70;;;;;;;12.72;67.41;101636.88;682491;29;1471;-88
2023/09/26 00:15:52;;;;;;;4.67;3.70;;;;;;;12.72;67.66;101639.50;682486;29;1112;-89
2023/09/26 00:16:13;;;;;;;4.28;3.47;;;;;;;12.72;67.35;101636.88;679751;29;1336;-88
2023/09/26 00:16:33;;;;;;;4.65;3.55;;;;;;;12.78;67.51;101644.06;682721;28;1230;-88
2023/09/26 00:16:54;;;;;;;4.90;3.58;;;;;;;12.70;67.48;101641.16;679768;29;1041;-89
2023/09/26 00:17:17;;;;;;;6.00;4.00;;;;;;;12.67;67.26;101635.84;684722;28;1117;-89
2023/09/26 00:17:38;;;;;;;6.25;4.18;;;;;;;12.70;67.47;101636.84;682354;29;1400;-89
2023/09/26 00:18:00;;;;;;;6.60;4.20;;;;;;;12.73;67.65;101641.28;686413;28;1236;-89
2023/09/26 00:18:20;;;;;;;5.80;4.10;;;;;;;12.66;67.42;101631.44;684938;28;1268;-88
2023/09/26 00:18:42;;;;;;;5.93;4.10;;;;;;;12.70;67.54;101642.06;687324;28;1367;-88
2023/09/26 00:19:03;;;;;;;5.30;3.88;;;;;;;12.72;67.30;101644.75;684442;28;1304;-89
2023/09/26 00:19:24;;;;;;;5.30;3.80;;;;;;;12.63;67.44;101631.31;683851;28;1154;-89
2023/09/26 00:19:44;;;;;;;5.25;3.78;;;;;;;12.64;67.63;101627.91;682702;29;1326;-89
2023/09/26 00:20:15;;;;;;;5.63;4.05;;;;;;;12.77;67.76;101647.53;682170;28;1279;-88
2023/09/26 00:20:38;;;;;;;5.78;4.40;;;;;;;12.71;67.67;101645.56;677109;29;1101;-88
2023/09/26 00:20:59;;;;;;;5.88;4.68;;;;;;;12.65;67.77;101634.91;677063;29;1383;-89
2023/09/26 00:21:19;;;;;;;5.20;4.33;;;;;;;12.77;67.62;101653.63;684839;28;1174;-88
2023/09/26 00:21:41;;;;;;;6.15;4.60;;;;;;;12.67;67.59;101641.06;685553;28;731;-88
2023/09/26 00:22:02;;;;;;;5.25;4.05;;;;;;;12.66;67.62;101645.41;682104;29;1410;-88
2023/09/26 00:22:23;;;;;;;5.55;4.00;;;;;;;12.70;67.45;101654.25;679383;29;1313;-87
2023/09/26 00:22:44;;;;;;;5.10;4.00;;;;;;;12.63;67.43;101640.09;680215;29;1011;-88
2023/09/26 00:23:06;;;;;;;5.68;4.13;;;;;;;12.68;67.53;101648.09;679443;29;1857;-88
2023/09/26 00:23:27;;;;;;;5.63;4.07;;;;;;;12.64;67.36;101641.00;681756;29;1914;-89
2023/09/26 00:23:48;;;;;;;5.18;3.70;;;;;;;12.62;67.75;101651.41;682652;28;1102;-88
2023/09/26 00:24:09;;;;;;;4.68;3.78;;;;;;;12.63;67.36;101645.31;681589;29;1326;-88
2023/09/26 00:24:30;;;;;;;4.60;3.70;;;;;;;12.62;67.48;101646.16;679999;29;1187;-89
2023/09/26 00:24:51;;;;;;;5.23;3.90;;;;;;;12.61;67.54;101647.88;684927;28;1092;-88
2023/09/26 00:25:12;;;;;;;5.60;3.92;;;;;;;12.59;67.64;101649.56;682143;29;1214;-88
2023/09/26 00:25:33;;;;;;;6.20;4.03;;;;;;;12.58;67.56;101650.41;682691;29;788;-89
2023/09/26 00:25:53;;;;;;;8.80;3.80;;;;;;;12.63;67.53;101657.50;684503;28;1257;-89
2023/09/26 00:26:14;;;;;;;8.88;3.80;;;;;;;12.51;67.66;101637.94;685076;28;1046;-89
2023/09/26 00:26:40;;;;;;;8.40;3.70;;;;;;;12.54;67.58;101645.88;685418;28;788;-89
2023/09/26 00:27:01;;;;;;;5.25;3.67;;;;;;;12.58;67.67;101653.03;679599;29;1150;-88
2023/09/26 00:27:21;;;;;;;4.83;3.87;;;;;;;12.56;67.71;101648.56;682263;28;1087;-88
2023/09/26 00:27:42;;;;;;;5.00;4.00;;;;;;;12.55;67.62;101642.44;685397;28;1036;-88
2023/09/26 00:28:03;;;;;;;4.82;4.28;;;;;;;12.57;67.47;101646.00;684836;28;1020;-88
2023/09/26 00:28:25;;;;;;;5.00;4.10;;;;;;;12.50;67.61;101641.41;684015;28;1222;-89
2023/09/26 00:28:45;;;;;;;5.72;4.00;;;;;;;12.55;67.27;101642.44;682712;28;1244;-88
2023/09/26 00:29:06;;;;;;;9.10;3.90;;;;;;;12.48;67.67;101635.22;679620;29;1088;-90
2023/09/26 00:29:27;;;;;;;10.95;4.38;;;;;;;12.53;67.72;101646.72;680033;29;979;-89
2023/09/26 00:29:48;;;;;;;10.93;4.72;;;;;;;12.55;67.69;101647.66;680045;29;1042;-87
2023/09/26 00:30:09;;;;;;;7.63;4.50;;;;;;;12.56;67.67;101648.56;679868;29;954;-89
2023/09/26 00:30:30;;;;;;;7.88;4.47;;;;;;;12.53;67.63;101648.47;686325;28;1381;-89
2023/09/26 00:30:51;;;;;;;7.73;4.33;;;;;;;12.56;67.54;101654.72;679756;28;1148;-88
2023/09/26 00:31:12;;;;;;;7.50;4.13;;;;;;;12.56;67.77;101648.56;680124;29;1082;-87
2023/09/26 00:31:33;;;;;;;5.07;4.00;;;;;;;12.56;67.49;101654.72;682722;28;815;-88
2023/09/26 00:31:54;;;;;;;4.75;3.80;;;;;;;12.53;67.84;101640.63;682259;28;1097;-88
2023/09/26 00:32:15;;;;;;;5.90;4.20;;;;;;;12.49;67.55;101637.00;679918;28;1154;-88
2023/09/26 00:32:39;;;;;;;6.78;3.95;;;;;;;12.56;67.72;101651.19;680108;29;1288;-88
2023/09/26 00:33:00;;;;;;;7.00;4.15;;;;;;;12.54;67.78;101645.88;682184;28;1294;-87
2023/09/26 00:33:21;;;;;;;6.30;4.13;;;;;;;12.56;67.55;101648.56;678841;29;1643;-88
2023/09/26 00:33:41;;;;;;;6.25;4.10;;;;;;;12.54;67.82;101642.41;680402;29;1064;-88
2023/09/26 00:34:02;;;;;;;6.60;4.05;;;;;;;12.48;67.73;101635.22;679031;29;1171;-89
2023/09/26 00:34:23;;;;;;;6.55;4.20;;;;;;;12.57;67.91;101656.47;683619;28;1271;-88
2023/09/26 00:34:44;;;;;;;6.38;4.20;;;;;;;12.42;67.64;101635.88;680074;29;1221;-88
2023/09/26 00:35:05;;;;;;;4.90;3.80;;;;;;;12.41;67.92;101628.88;677156;29;1011;-88
2023/09/26 00:35:27;;;;;;;4.38;3.78;;;;;;;12.42;67.86;101640.25;679878;29;1274;-88
2023/09/26 00:35:48;;;;;;;5.10;4.13;;;;;;;12.43;67.74;101636.78;677184;29;1217;-88
2023/09/26 00:36:12;;;;;;;6.10;4.20;;;;;;;12.39;68.05;101637.50;679790;29;1139;-89
2023/09/26 00:36:34;;;;;;;6.10;4.10;;;;;;;12.40;67.85;101626.22;677272;29;1459;-89
2023/09/26 00:36:55;;;;;;;5.70;4.22;;;;;;;12.44;68.43;101643.81;674440;29;990;-88
2023/09/26 00:37:16;;;;;;;5.88;4.45;;;;;;;12.43;68.25;101636.78;675043;29;1050;-88
2023/09/26 00:37:38;;;;;;;5.90;4.53;;;;;;;12.36;68.10;101619.09;679343;29;1282;-89
2023/09/26 00:37:59;;;;;;;5.15;4.05;;;;;;;12.38;68.07;101635.72;682118;29;1279;-88
2023/09/26 00:38:19;;;;;;;4.88;4.18;;;;;;;12.40;68.01;101631.47;682453;29;961;-88
2023/09/26 00:38:41;;;;;;;5.55;4.10;;;;;;;12.44;68.16;101643.81;680126;29;1181;-88
2023/09/26 00:39:01;;;;;;;6.35;4.30;;;;;;;12.37;68.06;101626.09;682464;29;1206;-88
2023/09/26 00:39:25;;;;;;;6.53;4.28;;;;;;;12.34;68.08;101630.41;679480;29;1217;-88
2023/09/26 00:39:46;;;;;;;5.60;4.03;;;;;;;12.33;68.11;101633.88;685394;28;800;-89
2023/09/26 00:40:10;;;;;;;7.03;4.00;;;;;;;12.43;68.23;101647.25;684818;28;1332;-90
2023/09/26 00:40:31;;;;;;;8.07;3.80;;;;;;;12.33;68.09;101631.25;682165;29;1259;-88
2023/09/26 00:40:52;;;;;;;8.00;3.60;;;;;;;12.37;68.32;101641.81;682466;29;1139;-89
2023/09/26 00:41:12;;;;;;;6.33;3.70;;;;;;;12.34;68.11;101638.25;679891;29;1180;-88
2023/09/26 00:41:34;;;;;;;6.35;3.92;;;;;;;12.31;67.90;101626.78;685342;28;1276;-88
2023/09/26 00:41:55;;;;;;;5.97;4.10;;;;;;;12.34;68.14;101640.88;687320;28;1273;-88
2023/09/26 00:42:16;;;;;;;5.95;4.00;;;;;;;12.34;68.22;101645.19;682241;28;1235;-88
2023/09/26 00:42:38;;;;;;;5.45;3.90;;;;;;;12.36;68.46;101651.41;677509;29;1278;-89
2023/09/26 00:43:02;;;;;;;6.93;4.18;;;;;;;12.37;68.04;101645.31;676949;29;1401;-89
2023/09/26 00:43:23;;;;;;;7.22;4.40;;;;;;;12.38;68.28;101649.72;677178;29;1911;-89
2023/09/26 00:43:43;;;;;;;7.75;4.15;;;;;;;12.32;68.27;101642.56;677434;29;1287;-88
2023/09/26 00:44:06;;;;;;;8.13;4.10;;;;;;;12.31;68.11;101640.75;678820;29;1286;-88
2023/09/26 00:44:27;;;;;;;9.50;3.97;;;;;;;12.38;68.40;101660.19;681341;28;1306;-88
2023/09/26 00:44:48;;;;;;;8.65;4.03;;;;;;;12.30;68.42;101635.47;679935;29;1336;-89
2023/09/26 00:45:11;;;;;;;6.80;3.58;;;;;;;12.31;68.37;101647.72;679035;29;1381;-89
2023/09/26 00:45:32;;;;;;;5.32;3.40;;;;;;;12.31;68.42;101645.97;685210;28;1264;-89
2023/09/26 00:45:56;;;;;;;5.18;3.47;;;;;;;12.28;68.27;101632.81;677092;29;1277;-87
2023/09/26 00:46:18;;;;;;;4.55;3.53;;;;;;;12.35;68.35;101649.59;679709;29;1107;-88
2023/09/26 00:46:40;;;;;;;5.38;3.97;;;;;;;12.30;68.32;101646.81;682247;29;1254;-89
2023/09/26 00:47:01;;;;;;;5.53;3.90;;;;;;;12.38;68.40;101661.91;679772;29;1054;-89
2023/09/26 00:47:22;;;;;;;5.82;3.83;;;;;;;12.27;68.21;101638.88;683256;28;1240;-89
2023/09/26 00:47:43;;;;;;;4.67;3.53;;;;;;;12.31;68.38;101653.84;682802;29;740;-89
2023/09/26 00:48:05;;;;;;;6.90;3.53;;;;;;;12.30;68.30;101644.19;681010;29;1137;-88
2023/09/26 00:48:26;;;;;;;9.52;3.80;;;;;;;12.27;68.46;101641.50;681274;29;1175;-89
2023/09/26 00:48:47;;;;;;;9.68;3.63;;;;;;;12.29;68.65;101638.94;682744;29;934;-88
2023/09/26 00:49:08;;;;;;;5.60;3.87;;;;;;;12.28;68.26;101648.50;679637;29;1217;-89
2023/09/26 00:49:30;;;;;;;5.55;4.05;;;;;;;12.34;68.17;101648.72;685089;28;1265;-89
2023/09/26 00:49:51;;;;;;;5.63;4.30;;;;;;;12.29;68.36;101633.72;682427;28;1143;-89
2023/09/26 00:50:15;;;;;;;5.18;4.30;;;;;;;12.34;68.19;101653.97;682520;28;1446;-89
2023/09/26 00:50:35;;;;;;;5.38;4.25;;;;;;;12.29;68.17;101645.03;679546;29;1363;-89
2023/09/26 00:50:59;;;;;;;5.80;4.43;;;;;;;12.30;68.49;101646.81;679792;29;1081;-89
2023/09/26 00:51:20;;;;;;;6.28;4.35;;;;;;;12.31;68.43;101645.13;678510;29;1329;-88
2023/09/26 00:51:41;;;;;;;5.97;4.43;;;;;;;12.27;68.28;101645.81;677411;29;863;-88
2023/09/26 00:52:03;;;;;;;6.68;4.50;;;;;;;12.29;68.33;101644.19;681829;28;1261;-88
2023/09/26 00:52:24;;;;;;;6.00;4.30;;;;;;;12.33;68.47;101646.94;681068;29;1308;-88
2023/09/26 00:52:49;;;;;;;6.25;4.40;;;;;;;12.27;68.41;101641.50;682583;29;1207;-88
2023/09/26 00:53:10;;;;;;;6.28;4.32;;;;;;;12.30;68.45;101638.09;682019;29;1364;-89
2023/09/26 00:53:32;;;;;;;5.80;4.13;;;;;;;12.35;68.20;101649.59;680086;29;1384;-89
2023/09/26 00:53:54;;;;;;;5.35;4.18;;;;;;;12.40;68.28;101655.03;682168;29;1155;-89
2023/09/26 00:54:15;;;;;;;5.05;4.15;;;;;;;12.42;68.35;101661.19;679621;29;1221;-88
2023/09/26 00:54:36;;;;;;;5.60;4.28;;;;;;;12.38;68.06;101648.81;680045;29;816;-88
2023/09/26 00:54:58;;;;;;;6.18;4.28;;;;;;;12.36;68.63;101647.88;679659;29;1088;-88
2023/09/26 00:55:22;;;;;;;6.15;4.20;;;;;;;12.30;68.20;101641.59;685009;28;1425;-88
2023/09/26 00:55:44;;;;;;;5.35;4.20;;;;;;;12.40;68.47;101657.63;682602;29;1036;-89
2023/09/26 00:56:05;;;;;;;4.53;4.00;;;;;;;12.37;68.11;101647.03;676958;29;1079;-89
2023/09/26 00:56:25;;;;;;;5.10;4.20;;;;;;;12.35;68.29;101646.97;680395;29;1174;-89
2023/09/26 00:56:46;;;;;;;5.67;4.20;;;;;;;12.35;68.36;101652.22;677360;29;1240;-89
2023/09/26 00:57:07;;;;;;;5.55;4.43;;;;;;;12.32;68.50;101655.66;682231;28;1254;-89
2023/09/26 00:57:28;;;;;;;5.43;4.40;;;;;;;12.30;68.21;101643.34;682361;29;1379;-88
2023/09/26 00:57:50;;;;;;;5.10;4.50;;;;;;;12.34;68.38;101648.72;682545;29;1051;-89
2023/09/26 00:58:14;;;;;;;5.28;4.57;;;;;;;12.34;68.51;101648.72;682566;29;1054;-89
2023/09/26 00:58:36;;;;;;;5.75;4.75;;;;;;;12.34;68.12;101643.50;682618;29;907;-89
2023/09/26 00:58:59;;;;;;;6.38;4.93;;;;;;;12.32;68.30;101645.19;683926;28;1250;-89
2023/09/26 00:59:20;;;;;;;6.13;4.72;;;;;;;12.27;68.38;101641.50;685038;28;1269;-88
2023/09/26 00:59:41;;;;;;;6.45;4.40;;;;;;;12.33;68.56;101653.91;679479;29;1236;-88
2023/09/26 01:00:03;;;;;;;5.80;4.22;;;;;;;12.34;68.09;101648.72;679357;29;1381;-88
2023/09/26 01:00:25;;;;;;;5.47;4.00;;;;;;;12.30;68.40;101645.94;685180;28;1173;-89
2023/09/26 01:00:49;;;;;;;4.40;3.78;;;;;;;12.28;68.32;101639.78;679835;29;1213;-88
2023/09/26 01:01:10;;;;;;;5.07;3.80;;;;;;;12.26;68.38;101634.47;679865;28;1359;-89
2023/09/26 01:01:32;;;;;;;7.20;4.30;;;;;;;12.27;68.14;101644.13;679586;29;1258;-89
2023/09/26 01:01:54;;;;;;;6.95;4.30;;;;;;;12.33;68.24;101649.56;679675;29;1088;-89
2023/09/26 01:02:15;;;;;;;6.72;4.20;;;;;;;12.27;68.18;101638.88;682009;28;1402;-88
2023/09/26 01:02:37;;;;;;;6.03;3.95;;;;;;;12.25;67.89;101637.03;679966;29;1129;-89
2023/09/26 01:02:58;;;;;;;6.03;4.00;;;;;;;12.24;68.41;101635.25;679327;29;1293;-89
2023/09/26 01:03:19;;;;;;;6.25;4.03;;;;;;;12.21;68.22;101638.66;682302;29;1906;-88
2023/09/26 01:03:40;;;;;;;5.25;3.58;;;;;;;12.26;68.49;101644.94;681992;28;1097;-89
2023/09/26 01:04:01;;;;;;;6.20;3.40;;;;;;;12.17;68.39;101629.81;685006;28;1084;-89
2023/09/26 01:04:22;;;;;;;6.72;3.40;;;;;;;12.17;68.54;101632.41;682565;28;865;-89
2023/09/26 01:04:43;;;;;;;7.35;3.50;;;;;;;12.18;68.17;101638.56;682733;29;808;-88
2023/09/26 01:05:04;;;;;;;7.20;3.73;;;;;;;12.14;68.30;101632.31;681170;28;1232;-88
2023/09/26 01:05:26;;;;;;;7.15;4.03;;;;;;;12.13;68.44;101637.50;682600;29;1361;-89
2023/09/26 01:05:47;;;;;;;7.15;4.25;;;;;;;12.16;68.42;101637.63;676962;29;1323;-89
2023/09/26 01:06:09;;;;;;;6.93;4.32;;;;;;;12.08;68.46;101629.50;681969;28;1359;-89
2023/09/26 01:06:30;;;;;;;7.53;4.85;;;;;;;12.12;68.45;101641.84;684828;28;1409;-89
2023/09/26 01:06:51;;;;;;;7.07;4.60;;;;;;;12.11;68.50;101634.81;685007;28;1269;-88
2023/09/26 01:07:12;;;;;;;5.33;4.10;;;;;;;12.11;68.40;101639.19;682407;29;1224;-90
2023/09/26 01:07:35;;;;;;;4.93;3.67;;;;;;;12.15;68.52;101633.19;685207;28;1351;-87
2023/09/26 01:07:55;;;;;;;4.38;3.70;;;;;;;12.10;68.42;101637.41;681219;29;1255;-88
2023/09/26 01:08:16;;;;;;;5.70;4.35;;;;;;;12.10;68.27;101632.16;676715;29;1206;-88
2023/09/26 01:08:37;;;;;;;6.00;4.40;;;;;;;12.07;68.48;101639.03;679924;29;812;-89
2023/09/26 01:08:58;;;;;;;6.10;4.30;;;;;;;12.04;68.48;101628.50;684776;28;1193;-89
2023/09/26 01:09:19;;;;;;;4.93;3.75;;;;;;;12.07;68.65;101631.19;684263;28;1286;-89
2023/09/26 01:09:40;;;;;;;4.78;3.75;;;;;;;12.06;68.25;101633.78;682238;29;1371;-89
2023/09/26 01:10:03;;;;;;;4.68;3.83;;;;;;;12.04;68.33;101627.63;679478;29;1385;-88
2023/09/26 01:10:24;;;;;;;5.60;4.20;;;;;;;12.02;68.58;101630.16;682285;28;1202;-88
2023/09/26 01:10:45;;;;;;;5.60;4.25;;;;;;;12.07;68.39;101639.03;684846;28;1129;-89
2023/09/26 01:11:06;;;;;;;5.80;4.25;;;;;;;12.06;68.50;101639.88;679590;29;1023;-88
2023/09/26 01:11:27;;;;;;;5.00;4.28;;;;;;;12.09;68.68;101636.50;681614;29;1464;-88
2023/09/26 01:11:47;;;;;;;4.38;3.97;;;;;;;12.03;68.39;101631.94;685128;28;1279;-88
2023/09/26 01:12:08;;;;;;;4.20;3.80;;;;;;;12.03;68.24;101637.19;684545;28;1159;-88
2023/09/26 01:12:29;;;;;;;4.03;3.50;;;;;;;12.05;68.39;101639.84;681925;28;1270;-89
2023/09/26 01:12:50;;;;;;;4.57;3.70;;;;;;;12.00;68.58;101626.63;680512;29;1235;-87
2023/09/26 01:13:12;;;;;;;5.18;3.95;;;;;;;11.99;68.33;101627.41;682505;28;992;-88
2023/09/26 01:13:32;;;;;;;5.30;3.90;;;;;;;11.97;68.40;101626.47;680092;29;746;-87
2023/09/26 01:13:53;;;;;;;5.20;3.97;;;;;;;11.97;68.35;101623.88;679562;29;1118;-87
2023/09/26 01:14:13;;;;;;;5.28;3.75;;;;;;;11.97;68.52;101626.47;682541;29;1323;-88
2023/09/26 01:14:35;;;;;;;5.60;3.50;;;;;;;11.96;68.28;101623.81;679975;29;1189;-87
2023/09/26 01:14:56;;;;;;;6.45;3.60;;;;;;;11.97;68.22;101631.72;682194;29;1100;-88
2023/09/26 01:15:37;;;;;;;6.47;3.80;;;;;;;11.96;68.30;101624.72;679766;29;976;-89
2023/09/26 01:16:00;;;;;;;9.02;4.20;;;;;;;11.97;68.24;101631.72;679452;29;1215;-88
2023/09/26 01:16:21;;;;;;;9.50;4.30;;;;;;;11.96;68.20;101634.25;678831;28;1561;-88
2023/09/26 01:16:41;;;;;;;9.38;4.05;;;;;;;11.91;68.13;101626.25;682674;29;778;-89
2023/09/26 01:17:02;;;;;;;6.20;4.17;;;;;;;11.98;68.30;101637.84;684875;28;1087;-88
2023/09/26 01:17:23;;;;;;;7.22;4.03;;;;;;;11.97;68.40;101642.19;680413;29;1444;-88
2023/09/26 01:17:43;;;;;;;7.85;4.10;;;;;;;11.99;68.51;101643.13;682665;29;1270;-88
2023/09/26 01:18:09;;;;;;;7.88;4.28;;;;;;;11.93;68.30;101629.84;679387;29;1163;-88
2023/09/26 01:18:30;;;;;;;5.57;4.15;;;;;;;11.92;68.38;101630.66;681421;29;1429;-88
2023/09/26 01:18:51;;;;;;;5.22;4.15;;;;;;;11.96;68.44;101635.16;682306;28;1264;-88
2023/09/26 01:19:12;;;;;;;4.70;3.70;;;;;;;11.97;68.55;101639.56;679689;29;1255;-89
2023/09/26 01:19:33;;;;;;;6.90;3.83;;;;;;;11.93;68.20;101630.72;679762;29;1205;-88
2023/09/26 01:19:53;;;;;;;6.43;3.50;;;;;;;11.94;68.53;101647.31;676836;29;1186;-88
2023/09/26 01:20:16;;;;;;;8.07;3.67;;;;;;;11.97;68.41;101638.69;677113;29;1233;-87
2023/09/26 01:20:44;;;;;;;5.53;3.33;;;;;;;11.95;68.37;101633.41;674341;29;852;-89
2023/09/26 01:21:05;;;;;;;4.50;3.47;;;;;;;11.98;68.27;101643.94;674404;29;1047;-88
2023/09/26 01:21:26;;;;;;;4.95;3.72;;;;;;;11.92;68.31;101634.16;677107;29;1220;-88
2023/09/26 01:21:47;;;;;;;5.55;4.00;;;;;;;11.96;68.32;101639.50;680041;29;882;-88
2023/09/26 01:22:08;;;;;;;6.80;4.10;;;;;;;11.94;68.58;101639.47;682308;28;1074;-89
2023/09/26 01:22:31;;;;;;;5.90;3.90;;;;;;;11.90;68.22;101632.31;681630;29;1237;-89
2023/09/26 01:22:53;;;;;;;5.93;4.20;;;;;;;11.92;68.12;101634.16;682411;29;1080;-89
2023/09/26 01:23:15;;;;;;;4.80;3.80;;;;;;;11.93;68.41;101637.69;682433;29;1899;-88
2023/09/26 01:23:38;;;;;;;4.88;3.65;;;;;;;11.97;68.72;101647.41;680026;29;855;-88
2023/09/26 01:23:59;;;;;;;4.43;3.53;;;;;;;11.93;68.73;101642.91;675746;29;1340;-88
2023/09/26 01:24:20;;;;;;;4.15;3.75;;;;;;;11.88;68.36;101626.16;677742;29;1210;-89
2023/09/26 01:24:41;;;;;;;5.13;4.20;;;;;;;11.89;68.56;101625.31;680045;29;1220;-88
2023/09/26 01:25:02;;;;;;;5.77;4.20;;;;;;;11.87;68.39;101632.22;679497;29;1247;-88
2023/09/26 01:25:23;;;;;;;6.57;4.33;;;;;;;11.87;68.39;101634.84;680712;29;1197;-88
2023/09/26 01:25:44;;;;;;;6.15;4.20;;;;;;;11.89;68.52;101633.16;687783;28;1578;-89
2023/09/26 01:26:05;;;;;;;6.30;4.30;;;;;;;11.90;68.41;101634.94;684601;28;1161;-88
2023/09/26 01:26:34;;;;;;;6.00;3.97;;;;;;;11.88;68.56;101626.16;684969;28;1515;-88
2023/09/26 01:26:55;;;;;;;7.25;4.00;;;;;;;11.89;68.72;101633.16;682124;28;1133;-87
2023/09/26 01:27:16;;;;;;;7.20;3.95;;;;;;;11.90;68.56;101629.72;679675;29;1186;-88
2023/09/26 01:27:37;;;;;;;5.55;4.00;;;;;;;11.95;68.67;101641.25;684721;28;1362;-88
2023/09/26 01:28:01;;;;;;;4.85;3.90;;;;;;;11.88;68.65;101632.28;684746;28;989;-88
2023/09/26 01:28:22;;;;;;;14.75;4.50;;;;;;;11.91;68.43;101631.47;682015;28;1326;-89
2023/09/26 01:28:42;;;;;;;16.98;4.82;;;;;;;11.88;68.73;101626.16;685231;28;827;-89
2023/09/26 01:29:04;;;;;;;16.80;4.97;;;;;;;11.87;68.47;101629.59;682143;28;1194;-89
2023/09/26 01:29:25;;;;;;;7.30;4.50;;;;;;;11.90;68.60;101632.31;682190;29;1250;-88
2023/09/26 01:29:46;;;;;;;5.40;4.35;;;;;;;11.93;68.27;101640.31;682693;29;823;-88
2023/09/26 01:30:08;;;;;;;5.03;4.22;;;;;;;11.89;68.65;101620.09;681827;29;1275;-88
2023/09/26 01:30:33;;;;;;;5.22;4.40;;;;;;;11.91;68.34;101628.88;679841;29;1036;-88
2023/09/26 01:30:54;;;;;;;4.53;4.00;;;;;;;12.00;68.26;101639.69;678712;29;1345;-89
2023/09/26 01:31:15;;;;;;;5.00;4.40;;;;;;;11.88;68.30;101621.81;679809;29;1332;-90
2023/09/26 01:31:36;;;;;;;5.37;4.40;;;;;;;11.97;68.55;101636.94;679722;29;1307;-88
2023/09/26 01:31:56;;;;;;;6.32;4.65;;;;;;;11.93;68.21;101630.72;679166;29;1141;-88
2023/09/26 01:32:18;;;;;;;6.05;4.25;;;;;;;11.94;68.55;101626.38;679737;29;1297;-88
2023/09/26 01:32:40;;;;;;;6.18;4.60;;;;;;;11.91;68.55;101628.88;682540;29;1228;-88
2023/09/26 01:33:02;;;;;;;5.80;4.40;;;;;;;11.94;68.41;101626.38;682223;28;1104;-89
2023/09/26 01:33:23;;;;;;;5.68;4.20;;;;;;;11.92;68.28;101628.03;682134;29;1217;-88
2023/09/26 01:33:44;;;;;;;5.68;4.13;;;;;;;11.89;68.29;101622.69;684754;28;1548;-87
2023/09/26 01:34:04;;;;;;;5.70;4.10;;;;;;;11.83;68.20;101617.25;679437;29;1347;-88
2023/09/26 01:34:25;;;;;;;6.37;4.50;;;;;;;11.87;68.29;101622.63;682276;29;1198;-88
2023/09/26 01:34:46;;;;;;;5.32;4.13;;;;;;;11.95;68.23;101638.63;682561;29;1403;-88
2023/09/26 01:35:07;;;;;;;5.40;4.00;;;;;;;11.90;68.19;101634.94;682152;28;1092;-89
2023/09/26 01:35:28;;;;;;;5.53;3.97;;;;;;;11.88;68.45;101627.06;679783;29;1022;-88
2023/09/26 01:35:51;;;;;;;5.18;3.83;;;;;;;11.88;68.71;101626.16;682281;29;1153;-86
2023/09/26 01:36:13;;;;;;;5.90;4.05;;;;;;;11.92;68.39;101638.50;684831;28;1206;-87
2023/09/26 01:36:34;;;;;;;5.30;3.83;;;;;;;11.85;68.47;101620.81;676904;29;1280;-89
2023/09/26 01:36:54;;;;;;;6.03;4.03;;;;;;;11.77;68.52;101608.34;676948;29;1164;-89
2023/09/26 01:37:15;;;;;;;6.50;3.90;;;;;;;11.83;68.75;101619.84;679670;29;1329;-87
2023/09/26 01:37:36;;;;;;;6.72;4.10;;;;;;;11.89;68.44;101627.94;682425;29;1287;-89
2023/09/26 01:37:57;;;;;;;6.93;4.25;;;;;;;11.79;68.23;101617.13;682162;29;1249;-88
2023/09/26 01:38:21;;;;;;;6.47;4.40;;;;;;;11.84;68.54;101619.00;682300;29;1503;-88
2023/09/26 01:38:42;;;;;;;6.38;4.38;;;;;;;11.81;68.28;101624.16;678516;29;1345;-88
2023/09/26 01:39:05;;;;;;;5.82;4.20;;;;;;;11.77;68.72;101610.97;679500;29;1158;-88
2023/09/26 01:39:26;;;;;;;5.68;4.10;;;;;;;11.79;68.42;101614.53;682338;28;1354;-88
2023/09/26 01:39:47;;;;;;;5.60;3.90;;;;;;;11.79;68.42;101622.38;682581;29;1257;-88
2023/09/26 01:40:09;;;;;;;7.80;4.22;;;;;;;11.76;68.71;101611.81;682259;28;1015;-89
2023/09/26 01:40:30;;;;;;;8.20;4.60;;;;;;;11.78;68.59;101610.13;680002;28;1210;-88
2023/09/26 01:40:50;;;;;;;9.13;4.50;;;;;;;11.79;68.67;101622.38;679708;29;1018;-88
2023/09/26 01:41:11;;;;;;;7.40;4.27;;;;;;;11.79;68.66;101611.91;679518;29;1213;-88
2023/09/26 01:41:32;;;;;;;6.38;3.83;;;;;;;11.81;68.61;101619.81;684653;28;1468;-88
2023/09/26 01:41:53;;;;;;;5.28;3.80;;;;;;;11.87;68.35;101629.59;682346;29;1299;-89
2023/09/26 01:42:13;;;;;;;5.25;3.85;;;;;;;11.79;68.42;101618.84;674504;29;964;-88
2023/09/26 01:42:34;;;;;;;6.00;4.30;;;;;;;11.85;68.58;101636.50;681973;29;1205;-88
2023/09/26 01:42:55;;;;;;;6.00;4.43;;;;;;;11.84;68.47;101630.38;681940;29;988;-88